Time;durP1;ratioP1;P1;durP2;ratioP2;P2;SDS_P1;SDS_P2;PMS_P1;PMS_P2;Temp;Humidity;BMP_temperature;BMP_pressure;BME280_temperature;BME280_humidity;BME280_pressure;Samples;Min_cycle;Max_cycle;Signal;HPM_P1;HPM_P2
2022/11/22 00:02:07;;;;;;;31.67;15.23;;;-0.40;99.90;;;;;;5034427;28;20113;-74
2022/11/22 00:04:33;;;;;;;30.63;14.52;;;-0.40;99.90;;;;;;5025028;28;20140;-72
2022/11/22 00:06:59;;;;;;;31.90;14.38;;;-0.30;99.90;;;;;;5011363;28;20043;-73
2022/11/22 00:09:25;;;;;;;30.00;14.30;;;-0.30;99.90;;;;;;5035747;28;20041;-73
2022/11/22 00:11:50;;;;;;;30.08;15.05;;;-0.30;99.90;;;;;;4999967;28;20025;-72
2022/11/22 00:14:16;;;;;;;33.55;14.57;;;-0.30;99.90;;;;;;5048365;28;20064;-73
2022/11/22 00:16:42;;;;;;;30.25;14.93;;;-0.30;99.90;;;;;;5013456;28;20025;-73
2022/11/22 00:19:08;;;;;;;32.47;14.77;;;-0.30;99.90;;;;;;5031410;28;20040;-72
2022/11/22 00:21:34;;;;;;;35.97;16.48;;;-0.30;99.90;;;;;;5015270;28;20782;-72
2022/11/22 00:24:00;;;;;;;30.38;15.07;;;-0.30;99.90;;;;;;5013191;28;20248;-72
2022/11/22 00:26:26;;;;;;;34.33;15.57;;;-0.30;99.90;;;;;;5018269;28;20030;-72
2022/11/22 00:28:51;;;;;;;34.72;15.95;;;-0.20;99.90;;;;;;5054525;28;20033;-73
2022/11/22 00:31:17;;;;;;;32.78;15.10;;;-0.20;99.90;;;;;;5054453;28;20037;-73
2022/11/22 00:33:43;;;;;;;31.60;15.32;;;-0.20;99.90;;;;;;5051491;28;20047;-72
2022/11/22 00:36:09;;;;;;;34.95;15.07;;;-0.20;99.90;;;;;;5051355;28;20104;-72
2022/11/22 00:38:34;;;;;;;34.67;15.75;;;-0.20;99.90;;;;;;5036346;28;20030;-73
2022/11/22 00:41:00;;;;;;;33.17;17.08;;;-0.20;99.90;;;;;;5018782;28;20025;-72
2022/11/22 00:43:26;;;;;;;35.25;15.60;;;-0.10;99.90;;;;;;5017600;28;20265;-72
2022/11/22 00:45:52;;;;;;;32.33;15.98;;;-0.10;99.90;;;;;;5036698;28;20025;-72
2022/11/22 00:48:18;;;;;;;30.90;15.57;;;-0.10;99.90;;;;;;5053686;28;20036;-72
2022/11/22 00:50:43;;;;;;;33.63;16.42;;;-0.10;99.90;;;;;;5034976;28;20021;-72
2022/11/22 00:53:09;;;;;;;31.58;15.82;;;-0.10;99.90;;;;;;5038940;28;20034;-72
2022/11/22 00:55:35;;;;;;;35.03;17.67;;;-0.10;99.90;;;;;;5021663;28;20022;-72
2022/11/22 00:58:00;;;;;;;32.05;16.23;;;-0.10;99.90;;;;;;5034767;28;20052;-72
2022/11/22 01:00:26;;;;;;;35.60;16.20;;;-0.10;99.90;;;;;;5050929;28;20055;-72
2022/11/22 01:02:52;;;;;;;34.00;16.85;;;-0.10;99.90;;;;;;5036857;28;20087;-72
2022/11/22 01:05:18;;;;;;;35.10;16.70;;;-0.20;99.90;;;;;;5036301;28;20037;-72
2022/11/22 01:07:44;;;;;;;33.60;16.23;;;-0.20;99.90;;;;;;5051112;28;20033;-71
2022/11/22 01:10:10;;;;;;;31.75;16.40;;;-0.20;99.90;;;;;;5039748;28;20036;-73
2022/11/22 01:12:36;;;;;;;36.90;17.98;;;-0.20;99.90;;;;;;5020129;28;20052;-72
2022/11/22 01:15:03;;;;;;;35.30;17.10;;;-0.20;99.90;;;;;;5032787;28;20049;-74
2022/11/22 01:17:29;;;;;;;36.85;17.02;;;-0.20;99.90;;;;;;5053429;28;20029;-73
2022/11/22 01:19:54;;;;;;;35.97;16.55;;;-0.20;99.90;;;;;;5037473;28;20033;-72
2022/11/22 01:22:20;;;;;;;43.38;18.65;;;-0.20;99.90;;;;;;5016694;28;20488;-72
2022/11/22 01:24:46;;;;;;;42.60;18.05;;;-0.20;99.90;;;;;;5035714;28;20033;-73
2022/11/22 01:27:12;;;;;;;41.65;18.10;;;-0.20;99.90;;;;;;5051532;28;20033;-74
2022/11/22 01:29:37;;;;;;;38.42;17.42;;;-0.20;99.90;;;;;;5020737;28;20032;-73
2022/11/22 01:32:03;;;;;;;42.85;17.30;;;-0.20;99.90;;;;;;5023152;28;20291;-73
2022/11/22 01:34:30;;;;;;;37.83;16.90;;;-0.20;99.90;;;;;;5037017;28;20059;-73
2022/11/22 01:36:55;;;;;;;35.15;17.05;;;-0.20;99.90;;;;;;5017873;28;20109;-72
2022/11/22 01:39:21;;;;;;;39.58;17.02;;;-0.20;99.90;;;;;;5052412;28;20112;-72
2022/11/22 01:41:47;;;;;;;37.03;17.20;;;-0.20;99.90;;;;;;5036496;28;20131;-74
2022/11/22 01:44:24;;;;;;;38.78;18.20;;;-0.20;99.90;;;;;;5033988;28;20799;-73
2022/11/22 01:46:55;;;;;;;36.67;16.85;;;-0.20;99.90;;;;;;5048376;28;20211;-74
2022/11/22 01:49:37;;;;;;;37.03;17.38;;;-0.20;99.90;;;;;;5050436;28;20478;-73
2022/11/22 01:52:23;;;;;;;37.50;17.35;;;-0.20;99.90;;;;;;5016456;28;20753;-73
2022/11/22 01:54:57;;;;;;;39.45;17.33;;;-0.20;99.90;;;;;;5052677;28;20037;-73
2022/11/22 01:57:32;;;;;;;41.10;19.00;;;-0.10;99.90;;;;;;5036422;28;20038;-73
2022/11/22 02:00:03;;;;;;;41.55;18.10;;;-0.20;99.90;;;;;;5035144;28;20638;-74
2022/11/22 02:02:29;;;;;;;36.47;17.27;;;-0.10;99.90;;;;;;5033651;28;20574;-74
2022/11/22 02:04:57;;;;;;;35.83;16.85;;;-0.10;99.90;;;;;;5036019;28;20022;-74
2022/11/22 02:07:42;;;;;;;39.75;17.83;;;-0.20;99.90;;;;;;5038525;28;20028;-72
2022/11/22 02:10:08;;;;;;;42.63;18.48;;;-0.10;99.90;;;;;;5036980;28;20083;-74
2022/11/22 02:12:35;;;;;;;42.67;18.90;;;-0.10;99.90;;;;;;5017670;28;20091;-74
2022/11/22 02:15:02;;;;;;;37.92;16.95;;;-0.10;99.90;;;;;;5052354;28;20125;-74
2022/11/22 02:17:28;;;;;;;42.33;18.38;;;-0.20;99.90;;;;;;5034724;28;20041;-73
2022/11/22 02:19:54;;;;;;;38.58;17.00;;;-0.10;99.90;;;;;;5018064;28;20088;-74
2022/11/22 02:22:32;;;;;;;44.33;18.15;;;-0.10;99.90;;;;;;5014624;28;20044;-74
2022/11/22 02:25:16;;;;;;;39.75;17.80;;;-0.10;99.90;;;;;;5036867;28;20072;-74
2022/11/22 02:27:43;;;;;;;40.70;17.30;;;-0.10;99.90;;;;;;5035822;28;20035;-73
2022/11/22 02:30:09;;;;;;;41.15;18.80;;;-0.10;99.90;;;;;;5034503;28;20108;-74
2022/11/22 02:32:35;;;;;;;42.50;18.08;;;-0.10;99.90;;;;;;5014735;28;20033;-71
2022/11/22 02:35:00;;;;;;;43.85;18.88;;;-0.10;99.90;;;;;;5034274;28;20037;-72
2022/11/22 02:37:31;;;;;;;39.63;18.38;;;-0.10;99.90;;;;;;5034428;28;20493;-72
2022/11/22 02:40:07;;;;;;;41.20;18.63;;;-0.10;99.90;;;;;;5016418;28;20039;-72
2022/11/22 02:42:34;;;;;;;37.88;16.73;;;-0.10;99.90;;;;;;5016202;28;20108;-74
2022/11/22 02:45:00;;;;;;;37.88;17.85;;;-0.10;99.90;;;;;;5035006;28;20034;-73
2022/11/22 02:47:26;;;;;;;38.40;17.35;;;-0.10;99.90;;;;;;5028969;28;20121;-73
2022/11/22 02:49:52;;;;;;;40.70;19.35;;;-0.10;99.90;;;;;;5018157;28;20103;-73
2022/11/22 02:52:18;;;;;;;38.47;17.38;;;-0.10;99.90;;;;;;5034267;28;20142;-73
2022/11/22 02:54:44;;;;;;;41.67;18.75;;;-0.10;99.90;;;;;;5052388;28;20025;-73
2022/11/22 02:57:11;;;;;;;36.72;17.42;;;-0.10;99.90;;;;;;5015591;28;20108;-80
2022/11/22 02:59:36;;;;;;;43.53;19.52;;;-0.10;99.90;;;;;;5037575;28;20485;-72
2022/11/22 03:02:02;;;;;;;43.17;20.58;;;-0.10;99.90;;;;;;5033770;28;20044;-73
2022/11/22 03:04:28;;;;;;;39.33;18.63;;;-0.10;99.90;;;;;;5032512;28;20064;-73
2022/11/22 03:06:56;;;;;;;41.22;19.33;;;-0.10;99.90;;;;;;5051061;28;20034;-73
2022/11/22 03:09:25;;;;;;;38.83;18.20;;;-0.10;99.90;;;;;;5033560;28;20116;-73
2022/11/22 03:11:52;;;;;;;37.90;17.92;;;-0.10;99.90;;;;;;5033826;28;20386;-73
2022/11/22 03:14:18;;;;;;;42.28;19.85;;;0.00;99.90;;;;;;5016980;28;20148;-73
2022/11/22 03:16:45;;;;;;;39.30;18.05;;;0.00;99.90;;;;;;5001307;28;20511;-72
2022/11/22 03:19:12;;;;;;;35.85;17.25;;;0.00;99.90;;;;;;5030495;28;20394;-73
2022/11/22 03:21:40;;;;;;;38.88;19.00;;;0.00;99.90;;;;;;5036201;28;20021;-73
2022/11/22 03:24:06;;;;;;;41.95;18.85;;;0.00;99.90;;;;;;5014996;28;20420;-72
2022/11/22 03:26:33;;;;;;;36.85;18.02;;;0.00;99.90;;;;;;5033162;28;20029;-74
2022/11/22 03:28:59;;;;;;;37.47;17.73;;;0.00;99.90;;;;;;5019531;28;20053;-73
2022/11/22 03:31:25;;;;;;;36.17;18.23;;;0.00;99.90;;;;;;5051673;28;20107;-73
2022/11/22 03:33:51;;;;;;;43.25;18.13;;;0.00;99.90;;;;;;5014872;28;20037;-74
2022/11/22 03:36:17;;;;;;;39.88;17.85;;;0.00;99.90;;;;;;5030341;28;20024;-72
2022/11/22 03:38:43;;;;;;;34.35;17.55;;;-0.10;99.90;;;;;;5019019;28;20416;-73
2022/11/22 03:41:09;;;;;;;38.92;16.90;;;0.00;99.90;;;;;;5031886;28;20425;-73
2022/11/22 03:43:34;;;;;;;36.50;17.85;;;0.00;99.90;;;;;;5036742;28;20029;-72
2022/11/22 03:46:00;;;;;;;36.63;17.02;;;0.00;99.90;;;;;;5048094;28;20108;-73
2022/11/22 03:48:26;;;;;;;37.28;17.42;;;0.00;99.90;;;;;;5035048;28;20392;-73
2022/11/22 03:50:52;;;;;;;38.65;18.42;;;0.00;99.90;;;;;;5035049;28;20517;-73
2022/11/22 03:53:18;;;;;;;40.05;18.13;;;0.00;99.90;;;;;;5035107;28;20037;-72
2022/11/22 03:55:44;;;;;;;41.08;19.17;;;0.00;99.90;;;;;;5048691;28;20452;-72
2022/11/22 03:58:10;;;;;;;38.13;17.27;;;0.00;99.90;;;;;;5038174;28;20029;-72
2022/11/22 04:00:36;;;;;;;39.10;17.85;;;0.00;99.90;;;;;;5037043;28;20741;-72
2022/11/22 04:03:01;;;;;;;42.38;17.88;;;0.00;99.90;;;;;;5049073;28;20029;-73
2022/11/22 04:05:27;;;;;;;37.70;17.98;;;0.00;99.90;;;;;;5038509;28;20638;-72
2022/11/22 04:07:56;;;;;;;36.85;19.25;;;0.00;99.90;;;;;;5024692;28;20128;-72
2022/11/22 04:10:23;;;;;;;39.63;18.00;;;0.00;99.90;;;;;;5054784;28;20037;-72
2022/11/22 04:12:49;;;;;;;37.60;17.52;;;0.00;99.90;;;;;;5042555;28;20121;-73
2022/11/22 04:15:14;;;;;;;41.05;18.35;;;0.00;99.90;;;;;;5052717;28;20153;-73
2022/11/22 04:17:46;;;;;;;39.40;18.70;;;0.00;99.90;;;;;;5021386;28;20049;-73
2022/11/22 04:23:05;;;;;;;40.45;18.65;;;0.10;99.90;;;;;;5041872;28;20071;-73
2022/11/22 04:25:33;;;;;;;37.08;17.52;;;0.10;99.90;;;;;;5036880;28;20459;-73
2022/11/22 04:27:59;;;;;;;36.70;17.52;;;0.10;99.90;;;;;;5054328;28;20424;-74
2022/11/22 04:33:13;;;;;;;35.38;16.38;;;0.10;99.90;;;;;;5037146;28;20421;-74
2022/11/22 04:35:39;;;;;;;36.15;16.75;;;0.10;99.90;;;;;;5022767;28;20018;-72
2022/11/22 04:38:05;;;;;;;38.30;18.30;;;0.10;99.90;;;;;;5037018;28;20036;-73
2022/11/22 04:40:32;;;;;;;38.63;17.38;;;0.10;99.90;;;;;;5037519;28;20828;-73
2022/11/22 04:45:43;;;;;;;38.45;17.73;;;0.10;99.90;;;;;;5037822;28;20033;-73
2022/11/22 04:48:11;;;;;;;38.58;18.60;;;0.10;99.90;;;;;;5001622;28;20021;-73
2022/11/22 04:53:22;;;;;;;35.75;17.80;;;0.20;99.90;;;;;;5038291;28;20115;-74
2022/11/22 04:55:48;;;;;;;37.67;17.50;;;0.20;99.90;;;;;;5036243;28;20052;-73
2022/11/22 04:58:14;;;;;;;44.63;19.73;;;0.20;99.90;;;;;;5036608;28;20031;-73
2022/11/22 05:00:40;;;;;;;37.97;19.42;;;0.20;99.90;;;;;;5040440;28;20131;-71
2022/11/22 05:03:06;;;;;;;40.05;18.95;;;0.20;99.90;;;;;;5019035;28;20484;-72
2022/11/22 05:05:40;;;;;;;45.03;19.80;;;0.20;99.90;;;;;;5034242;28;20037;-73
2022/11/22 05:08:08;;;;;;;42.65;18.88;;;0.20;99.90;;;;;;5035578;28;20037;-72
2022/11/22 05:13:22;;;;;;;39.20;18.05;;;0.20;99.90;;;;;;5037861;28;20033;-72
2022/11/22 05:15:50;;;;;;;37.28;18.02;;;0.30;99.90;;;;;;5034342;28;20030;-72
2022/11/22 05:18:17;;;;;;;38.65;19.05;;;0.30;99.90;;;;;;5037955;28;20025;-72
2022/11/22 05:20:43;;;;;;;40.70;19.33;;;0.30;99.90;;;;;;5051961;28;20132;-73
2022/11/22 05:25:54;;;;;;;36.40;17.40;;;0.30;99.90;;;;;;5037136;28;20029;-73
2022/11/22 05:28:20;;;;;;;34.50;17.73;;;0.30;99.90;;;;;;5051793;28;20047;-72
2022/11/22 05:30:45;;;;;;;41.80;20.10;;;0.30;99.90;;;;;;5011743;28;20020;-72
2022/11/22 05:33:11;;;;;;;36.78;18.13;;;0.40;99.90;;;;;;5038389;28;20028;-72
2022/11/22 05:35:37;;;;;;;40.17;18.13;;;0.40;99.90;;;;;;5023203;28;20040;-72
2022/11/22 05:38:02;;;;;;;42.30;19.75;;;0.40;99.90;;;;;;5010379;28;20036;-72
2022/11/22 05:40:28;;;;;;;42.58;19.00;;;0.40;99.90;;;;;;5015050;28;20505;-71
2022/11/22 05:42:54;;;;;;;37.17;18.08;;;0.40;99.90;;;;;;5041466;28;20405;-73
2022/11/22 05:45:20;;;;;;;43.15;20.58;;;0.40;99.90;;;;;;5010905;28;20543;-75
2022/11/22 05:47:45;;;;;;;37.97;19.27;;;0.40;99.90;;;;;;5036299;28;20025;-73
2022/11/22 05:50:11;;;;;;;37.75;18.92;;;0.40;99.90;;;;;;5044494;28;20052;-73
2022/11/22 05:52:37;;;;;;;38.85;17.90;;;0.50;99.90;;;;;;5027368;28;20037;-73
2022/11/22 05:55:03;;;;;;;40.13;19.55;;;0.50;99.90;;;;;;5039040;28;20029;-72
2022/11/22 05:57:31;;;;;;;38.03;19.13;;;0.50;99.90;;;;;;5019727;28;20381;-74
2022/11/22 05:59:57;;;;;;;41.88;20.13;;;0.50;99.90;;;;;;5032327;28;20021;-72
2022/11/22 06:02:23;;;;;;;41.10;19.95;;;0.50;99.90;;;;;;5051318;28;20516;-72
2022/11/22 06:04:48;;;;;;;42.33;20.00;;;0.50;99.90;;;;;;5037452;28;20032;-73
2022/11/22 06:07:14;;;;;;;41.13;19.08;;;0.50;99.90;;;;;;5030587;28;20026;-73
2022/11/22 06:09:40;;;;;;;40.33;19.85;;;0.50;99.90;;;;;;5033554;28;20448;-73
2022/11/22 06:12:06;;;;;;;39.58;19.90;;;0.50;99.90;;;;;;5033326;28;20098;-72
2022/11/22 06:14:34;;;;;;;41.97;20.75;;;0.50;99.90;;;;;;5022875;28;20139;-72
2022/11/22 06:17:00;;;;;;;41.92;19.48;;;0.50;99.90;;;;;;5035623;28;20063;-73
2022/11/22 06:19:26;;;;;;;39.78;20.15;;;0.50;99.90;;;;;;5019437;28;20501;-73
2022/11/22 06:21:52;;;;;;;41.97;20.25;;;0.50;99.90;;;;;;5013029;28;20107;-72
2022/11/22 06:24:19;;;;;;;38.30;20.15;;;0.50;99.90;;;;;;5019690;28;20036;-72
2022/11/22 06:26:44;;;;;;;46.70;21.42;;;0.50;99.90;;;;;;5036272;28;20513;-73
2022/11/22 06:29:13;;;;;;;43.50;20.63;;;0.50;99.90;;;;;;5049140;28;20043;-76
2022/11/22 06:31:39;;;;;;;42.72;20.80;;;0.50;99.90;;;;;;5018580;28;20025;-73
2022/11/22 06:34:05;;;;;;;42.00;19.88;;;0.50;99.90;;;;;;5031142;28;20017;-77
2022/11/22 06:36:33;;;;;;;43.92;21.23;;;0.50;99.90;;;;;;5046985;28;20527;-73
2022/11/22 06:39:02;;;;;;;42.55;22.65;;;0.60;99.90;;;;;;5035236;28;20021;-73
2022/11/22 06:41:32;;;;;;;48.03;20.75;;;0.60;99.90;;;;;;5045677;28;20075;-73
2022/11/22 06:43:58;;;;;;;50.22;21.08;;;0.60;99.90;;;;;;5051306;28;20021;-73
2022/11/22 06:46:26;;;;;;;41.72;20.90;;;0.60;99.90;;;;;;5013148;28;20029;-76
2022/11/22 06:48:52;;;;;;;44.72;21.85;;;0.60;99.90;;;;;;5013090;28;20021;-73
2022/11/22 06:51:20;;;;;;;50.88;22.95;;;0.60;99.90;;;;;;5015065;28;20041;-75
2022/11/22 06:53:47;;;;;;;46.10;21.80;;;0.60;99.90;;;;;;5031662;28;20029;-73
2022/11/22 06:56:22;;;;;;;51.03;22.48;;;0.60;99.90;;;;;;5033777;28;20045;-73
2022/11/22 06:58:49;;;;;;;47.35;22.88;;;0.60;99.90;;;;;;5031336;28;20029;-73
2022/11/22 07:01:18;;;;;;;46.22;22.02;;;0.60;99.90;;;;;;5007668;28;20017;-76
2022/11/22 07:03:44;;;;;;;49.78;21.90;;;0.60;99.90;;;;;;5029694;28;20854;-75
2022/11/22 07:06:11;;;;;;;49.65;22.92;;;0.60;99.90;;;;;;5026580;28;20485;-73
2022/11/22 07:08:38;;;;;;;49.45;23.30;;;0.60;99.90;;;;;;5028432;28;20161;-73
2022/11/22 07:11:10;;;;;;;46.55;21.98;;;0.60;99.90;;;;;;5017217;28;20595;-73
2022/11/22 07:13:39;;;;;;;52.05;23.00;;;0.60;99.90;;;;;;5038890;28;20044;-75
2022/11/22 07:16:07;;;;;;;55.35;22.20;;;0.60;99.90;;;;;;5039791;28;20051;-73
2022/11/22 07:18:33;;;;;;;49.58;24.17;;;0.90;99.90;;;;;;5018071;28;20029;-72
2022/11/22 07:21:04;;;;;;;52.92;22.75;;;0.80;99.90;;;;;;5033233;28;20024;-73
2022/11/22 07:23:30;;;;;;;45.30;22.38;;;0.80;99.90;;;;;;5018999;28;20383;-73
2022/11/22 07:25:57;;;;;;;46.65;21.83;;;0.70;99.90;;;;;;5036832;28;20096;-73
2022/11/22 07:28:23;;;;;;;52.92;22.88;;;0.70;99.90;;;;;;5055739;28;20100;-73
2022/11/22 07:30:49;;;;;;;51.83;24.77;;;0.70;99.90;;;;;;5037139;28;20060;-72
2022/11/22 07:33:15;;;;;;;56.47;23.38;;;0.70;99.90;;;;;;5000254;28;20029;-73
2022/11/22 07:35:40;;;;;;;46.80;22.23;;;0.70;99.90;;;;;;5018836;28;20035;-72
2022/11/22 07:38:06;;;;;;;55.55;24.85;;;0.70;99.90;;;;;;5046987;28;20025;-72
2022/11/22 07:40:32;;;;;;;52.45;23.40;;;0.70;99.90;;;;;;5020586;28;20009;-73
2022/11/22 07:42:58;;;;;;;47.53;23.48;;;0.70;99.90;;;;;;5033568;28;20017;-72
2022/11/22 07:45:24;;;;;;;57.83;25.35;;;0.70;99.90;;;;;;5021839;28;20029;-73
2022/11/22 07:47:51;;;;;;;48.55;23.77;;;0.60;99.90;;;;;;5053323;28;20662;-73
2022/11/22 07:50:16;;;;;;;47.70;23.08;;;0.70;99.90;;;;;;5041892;28;20033;-74
2022/11/22 07:52:42;;;;;;;49.08;23.55;;;0.70;99.90;;;;;;5020477;28;20032;-74
2022/11/22 07:55:08;;;;;;;50.30;22.98;;;0.70;99.90;;;;;;5042385;28;20077;-73
2022/11/22 07:57:34;;;;;;;51.05;24.92;;;0.80;99.90;;;;;;5023424;28;20040;-75
2022/11/22 08:00:00;;;;;;;52.15;23.35;;;0.70;99.90;;;;;;5024359;28;20029;-75
2022/11/22 08:02:26;;;;;;;45.75;22.10;;;0.80;99.90;;;;;;5021737;28;20085;-73
2022/11/22 08:04:52;;;;;;;47.45;23.08;;;0.80;99.90;;;;;;5053151;28;20125;-73
2022/11/22 08:07:18;;;;;;;43.83;22.35;;;0.80;99.90;;;;;;5020667;28;20063;-75
2022/11/22 08:09:44;;;;;;;43.00;22.17;;;0.80;99.90;;;;;;5024217;28;20029;-73
2022/11/22 08:12:10;;;;;;;46.17;22.67;;;0.90;99.90;;;;;;5042362;28;20555;-72
2022/11/22 08:14:36;;;;;;;48.55;22.75;;;0.80;99.90;;;;;;5040817;28;20029;-72
2022/11/22 08:17:02;;;;;;;46.35;22.27;;;0.90;99.90;;;;;;5040955;28;20051;-73
2022/11/22 08:19:29;;;;;;;48.55;22.55;;;0.80;99.90;;;;;;5020644;28;20108;-74
2022/11/22 08:21:55;;;;;;;51.08;23.02;;;0.80;99.90;;;;;;5021909;28;20025;-73
2022/11/22 08:24:21;;;;;;;43.35;21.40;;;0.80;99.90;;;;;;5022956;28;20079;-76
2022/11/22 08:26:47;;;;;;;46.70;22.27;;;0.90;99.90;;;;;;5036728;28;20119;-72
2022/11/22 08:29:13;;;;;;;48.85;23.27;;;0.80;99.90;;;;;;5037092;28;20092;-72
2022/11/22 08:31:39;;;;;;;49.75;23.05;;;0.80;99.90;;;;;;5037425;28;20029;-72
2022/11/22 08:34:04;;;;;;;46.05;21.52;;;0.90;99.90;;;;;;5032930;28;20056;-72
2022/11/22 08:36:31;;;;;;;44.30;21.88;;;0.90;99.90;;;;;;5020342;28;20160;-74
2022/11/22 08:38:56;;;;;;;43.10;21.10;;;0.90;99.90;;;;;;5037064;28;20036;-73
2022/11/22 08:41:22;;;;;;;42.92;21.08;;;0.90;99.90;;;;;;5037038;28;20025;-73
2022/11/22 08:43:49;;;;;;;48.28;22.23;;;0.90;99.90;;;;;;5036477;28;20026;-73
2022/11/22 08:46:15;;;;;;;43.42;21.08;;;0.90;99.90;;;;;;5052592;28;20021;-73
2022/11/22 08:48:41;;;;;;;43.75;22.38;;;0.90;99.90;;;;;;5035898;28;20177;-73
2022/11/22 08:51:08;;;;;;;46.60;21.60;;;1.00;99.90;;;;;;5053709;28;20120;-72
2022/11/22 08:53:37;;;;;;;48.08;22.38;;;1.00;99.90;;;;;;5039192;28;20024;-72
2022/11/22 08:56:04;;;;;;;47.10;22.08;;;1.00;99.90;;;;;;5055153;28;20025;-72
2022/11/22 08:58:32;;;;;;;44.00;20.52;;;1.00;99.90;;;;;;5041042;28;20032;-73
2022/11/22 09:01:16;;;;;;;50.67;22.55;;;1.00;99.90;;;;;;5023826;28;20032;-73
2022/11/22 09:03:42;;;;;;;44.70;21.27;;;1.00;99.90;;;;;;5004033;28;20031;-74
2022/11/22 09:06:16;;;;;;;44.83;22.40;;;1.00;99.90;;;;;;5026743;28;20570;-73
2022/11/22 09:08:42;;;;;;;47.13;22.42;;;1.00;99.90;;;;;;5038075;28;20072;-73
2022/11/22 09:11:10;;;;;;;45.05;22.70;;;1.00;99.90;;;;;;5042018;28;20573;-73
2022/11/22 09:13:36;;;;;;;47.22;22.73;;;1.10;99.90;;;;;;5040189;28;20067;-73
2022/11/22 09:16:08;;;;;;;44.63;22.20;;;1.10;99.90;;;;;;5037551;28;20022;-73
2022/11/22 09:18:34;;;;;;;45.47;22.98;;;1.10;99.90;;;;;;5037445;28;20029;-74
2022/11/22 09:21:02;;;;;;;46.45;23.05;;;1.10;99.90;;;;;;5038577;28;20029;-73
2022/11/22 09:23:27;;;;;;;48.03;23.73;;;1.10;99.90;;;;;;5021633;28;20504;-73
2022/11/22 09:25:58;;;;;;;42.00;22.08;;;1.10;99.90;;;;;;5022472;28;20024;-73
2022/11/22 09:28:26;;;;;;;47.17;21.95;;;1.10;99.90;;;;;;5035508;28;20040;-73
2022/11/22 09:31:08;;;;;;;48.13;22.30;;;1.10;99.90;;;;;;5048322;28;20026;-72
2022/11/22 09:33:36;;;;;;;42.85;20.27;;;1.10;99.90;;;;;;5055299;28;20386;-73
2022/11/22 09:36:06;;;;;;;45.17;21.60;;;1.10;99.90;;;;;;5040442;28;20022;-73
2022/11/22 09:38:33;;;;;;;44.58;20.60;;;1.10;99.90;;;;;;5054547;28;20020;-73
2022/11/22 09:41:05;;;;;;;45.30;21.45;;;1.10;99.90;;;;;;5039903;28;20136;-72
2022/11/22 09:43:42;;;;;;;49.75;22.85;;;1.20;99.90;;;;;;5022376;28;20250;-73
2022/11/22 09:46:08;;;;;;;47.25;23.23;;;1.20;99.90;;;;;;5004294;28;20029;-73
2022/11/22 09:48:55;;;;;;;50.80;24.42;;;1.20;99.90;;;;;;5020401;28;20041;-73
2022/11/22 09:51:32;;;;;;;44.53;21.60;;;1.20;99.90;;;;;;5039691;28;20025;-73
2022/11/22 09:54:06;;;;;;;43.97;20.77;;;1.20;99.90;;;;;;5021230;28;20045;-72
2022/11/22 09:56:32;;;;;;;47.25;22.30;;;1.20;99.90;;;;;;5039299;28;20490;-73
2022/11/22 09:59:21;;;;;;;45.50;21.95;;;1.30;99.90;;;;;;5020906;28;20028;-73
2022/11/22 10:02:06;;;;;;;42.42;21.88;;;1.30;99.90;;;;;;5036371;28;20075;-73
2022/11/22 10:04:37;;;;;;;46.85;22.05;;;1.30;99.90;;;;;;5039535;28;20634;-73
2022/11/22 10:07:12;;;;;;;;;;;1.30;99.90;;;;;;5050500;28;20033;-73
2022/11/22 10:10:10;;;;;;;49.20;23.88;;;1.30;99.90;;;;;;5044332;28;20392;-72
2022/11/22 10:12:51;;;;;;;48.97;21.75;;;1.20;99.90;;;;;;5027457;28;20045;-73
2022/11/22 10:15:22;;;;;;;48.08;22.40;;;1.30;99.90;;;;;;5038777;28;20036;-72
2022/11/22 10:17:54;;;;;;;47.60;22.80;;;1.30;99.90;;;;;;5039280;28;20069;-73
2022/11/22 10:20:38;;;;;;;51.25;24.48;;;1.30;99.90;;;;;;5039244;28;20033;-72
2022/11/22 10:23:13;;;;;;;54.63;24.75;;;1.40;99.90;;;;;;5033635;28;20033;-72
2022/11/22 10:26:02;;;;;;;50.60;22.92;;;1.40;99.90;;;;;;5022276;28;20017;-71
2022/11/22 10:28:47;;;;;;;48.28;23.15;;;1.40;99.90;;;;;;5016118;28;20129;-74
2022/11/22 10:31:19;;;;;;;44.03;21.88;;;1.50;99.90;;;;;;5035967;28;20033;-73
2022/11/22 10:33:51;;;;;;;52.53;24.55;;;1.50;99.90;;;;;;5037680;28;20156;-74
2022/11/22 10:36:44;;;;;;;48.08;22.92;;;1.50;99.90;;;;;;5051577;28;20025;-73
2022/11/22 10:39:19;;;;;;;49.17;23.40;;;1.50;99.90;;;;;;5036267;28;20029;-71
2022/11/22 10:42:29;;;;;;;46.85;23.58;;;1.50;99.90;;;;;;5037072;28;20037;-72
2022/11/22 10:45:16;;;;;;;55.90;22.50;;;1.50;99.90;;;;;;5039530;28;20040;-74
2022/11/22 10:48:14;;;;;;;44.55;23.00;;;1.50;99.90;;;;;;5041252;28;20627;-74
2022/11/22 10:51:08;;;;;;;54.33;24.98;;;1.50;99.90;;;;;;5052530;28;20563;-71
2022/11/22 10:53:42;;;;;;;48.97;21.83;;;1.60;99.90;;;;;;5029102;28;20498;-73
2022/11/22 10:56:23;;;;;;;48.75;23.77;;;1.60;99.90;;;;;;5057455;28;20423;-72
2022/11/22 10:59:09;;;;;;;46.67;23.20;;;1.70;99.90;;;;;;5041645;28;20043;-73
2022/11/22 11:01:44;;;;;;;52.47;23.30;;;1.70;99.90;;;;;;5039258;28;20033;-72
2022/11/22 11:04:11;;;;;;;43.15;23.38;;;1.80;99.90;;;;;;5036743;28;20435;-74
2022/11/22 11:06:45;;;;;;;46.88;24.20;;;1.80;99.90;;;;;;5051661;28;20972;-72
2022/11/22 11:09:28;;;;;;;43.33;23.15;;;1.90;99.90;;;;;;5019320;28;20295;-72
2022/11/22 11:11:54;;;;;;;49.53;24.00;;;1.90;99.90;;;;;;5036372;28;20026;-73
2022/11/22 11:14:19;;;;;;;46.80;23.63;;;2.00;99.90;;;;;;5039126;28;20027;-72
2022/11/22 11:16:46;;;;;;;48.55;25.10;;;2.00;99.90;;;;;;5002337;28;20276;-73
2022/11/22 11:19:19;;;;;;;47.97;24.40;;;1.90;99.90;;;;;;5038271;28;20026;-74
2022/11/22 11:21:52;;;;;;;47.97;24.23;;;1.90;99.90;;;;;;5037268;28;20477;-73
2022/11/22 11:24:18;;;;;;;48.13;24.40;;;1.90;99.90;;;;;;5019461;28;20040;-73
2022/11/22 11:26:52;;;;;;;48.28;23.85;;;2.00;99.90;;;;;;5051216;28;20025;-73
2022/11/22 11:29:18;;;;;;;41.90;21.58;;;2.00;99.90;;;;;;5052446;28;20092;-73
2022/11/22 11:32:09;;;;;;;43.47;22.65;;;2.00;99.90;;;;;;5020745;28;20497;-74
2022/11/22 11:34:36;;;;;;;45.50;22.35;;;2.00;99.90;;;;;;4990909;28;20029;-73
2022/11/22 11:37:04;;;;;;;45.42;23.08;;;2.00;99.90;;;;;;5002960;28;20508;-73
2022/11/22 11:39:32;;;;;;;46.60;22.85;;;2.00;99.90;;;;;;5018769;28;20396;-73
2022/11/22 11:42:00;;;;;;;46.60;24.05;;;2.10;99.90;;;;;;5020526;28;20047;-72
2022/11/22 11:44:35;;;;;;;47.00;22.27;;;2.10;99.90;;;;;;5018004;28;20075;-73
2022/11/22 11:47:04;;;;;;;50.00;24.35;;;2.10;99.90;;;;;;5019742;28;20111;-73
2022/11/22 11:49:32;;;;;;;48.17;24.73;;;2.10;99.90;;;;;;5037659;28;20612;-73
2022/11/22 11:52:03;;;;;;;43.53;23.33;;;2.10;99.90;;;;;;5020450;28;20034;-74
2022/11/22 11:54:37;;;;;;;48.00;23.48;;;2.10;99.90;;;;;;5020120;28;20076;-73
2022/11/22 11:57:06;;;;;;;46.65;22.70;;;2.10;99.90;;;;;;5040009;28;20033;-73
2022/11/22 11:59:38;;;;;;;50.33;24.45;;;2.20;99.90;;;;;;5054707;28;20389;-72
2022/11/22 12:02:28;;;;;;;44.70;22.83;;;2.20;99.90;;;;;;5033702;28;20116;-73
2022/11/22 12:05:05;;;;;;;48.67;21.85;;;2.20;99.90;;;;;;5039146;28;20497;-74
2022/11/22 12:07:33;;;;;;;44.67;20.75;;;2.20;99.90;;;;;;5020485;28;20080;-74
2022/11/22 12:10:00;;;;;;;45.75;23.48;;;2.20;99.90;;;;;;5035007;28;20030;-73
2022/11/22 12:12:26;;;;;;;46.75;23.10;;;2.20;99.90;;;;;;5052617;28;20331;-74
2022/11/22 12:15:28;;;;;;;45.47;23.38;;;2.20;99.90;;;;;;5038437;28;20143;-72
2022/11/22 12:18:09;;;;;;;44.30;21.88;;;2.20;99.90;;;;;;5035247;28;20035;-73
2022/11/22 12:20:51;;;;;;;42.75;21.83;;;2.30;99.90;;;;;;5037422;28;20035;-75
2022/11/22 12:23:29;;;;;;;46.33;22.55;;;2.30;99.90;;;;;;5002311;28;20397;-73
2022/11/22 12:25:59;;;;;;;43.85;23.15;;;2.30;99.90;;;;;;5042402;28;20129;-73
2022/11/22 12:28:27;;;;;;;43.50;21.90;;;2.30;99.90;;;;;;5044923;28;20043;-75
2022/11/22 12:31:21;;;;;;;43.20;22.13;;;2.40;99.90;;;;;;5037411;28;20029;-72
2022/11/22 12:33:53;;;;;;;42.60;21.23;;;2.40;99.90;;;;;;5020972;28;20520;-73
2022/11/22 12:36:44;;;;;;;43.33;22.38;;;2.40;99.90;;;;;;5054922;28;20029;-73
2022/11/22 12:39:24;;;;;;;43.70;21.13;;;2.40;99.90;;;;;;5041179;28;20355;-73
2022/11/22 12:42:11;;;;;;;41.90;19.88;;;2.40;99.90;;;;;;5056726;28;20021;-74
2022/11/22 12:44:42;;;;;;;42.92;22.13;;;2.50;99.90;;;;;;5037905;28;20033;-73
2022/11/22 12:47:10;;;;;;;;;;;2.50;99.90;;;;;;5040018;28;20053;-74
2022/11/22 12:49:44;;;;;;;42.10;21.65;;;2.50;99.90;;;;;;5055567;28;20003;-73
2022/11/22 12:52:28;;;;;;;41.42;20.85;;;2.40;99.90;;;;;;5040723;28;20068;-73
2022/11/22 12:55:15;;;;;;;38.90;20.80;;;2.40;99.90;;;;;;5053375;28;20087;-73
2022/11/22 12:57:58;;;;;;;46.58;21.67;;;2.40;99.90;;;;;;5038067;28;20036;-74
2022/11/22 13:00:28;;;;;;;42.97;22.08;;;2.40;99.90;;;;;;5006192;28;20066;-72
2022/11/22 13:03:18;;;;;;;45.42;22.00;;;2.40;99.90;;;;;;5040307;28;20033;-73
2022/11/22 13:05:52;;;;;;;44.93;21.87;;;2.40;99.90;;;;;;5020516;28;20404;-74